Time;durP1;ratioP1;P1;durP2;ratioP2;P2;SDS_P1;SDS_P2;PMS_P1;PMS_P2;Temp;Humidity;BMP_temperature;BMP_pressure;BME280_temperature;BME280_humidity;BME280_pressure;Samples;Min_cycle;Max_cycle;Signal;HPM_P1;HPM_P2
2022/07/11 00:02:05;;;;;;;8.30;2.53;;;20.80;99.00;;;;;;4969511;28;20547;-82
2022/07/11 00:04:31;;;;;;;4.83;2.27;;;20.80;96.90;;;;;;4970768;28;20027;-82
2022/07/11 00:06:57;;;;;;;8.15;2.65;;;20.80;97.90;;;;;;4970780;28;20062;-83
2022/07/11 00:09:23;;;;;;;5.07;2.30;;;20.80;99.00;;;;;;4970599;28;20451;-82
2022/07/11 00:11:49;;;;;;;4.80;2.05;;;20.70;98.90;;;;;;4970649;28;20055;-82
2022/07/11 00:14:15;;;;;;;4.63;2.05;;;20.70;99.70;;;;;;4970610;28;20379;-82
2022/07/11 00:16:41;;;;;;;6.45;2.47;;;20.70;98.40;;;;;;4971104;28;20387;-83
2022/07/11 00:19:07;;;;;;;5.03;2.20;;;20.60;99.90;;;;;;4971239;28;20031;-82
2022/07/11 00:21:36;;;;;;;7.28;2.25;;;20.60;99.90;;;;;;4985338;28;20027;-82
2022/07/11 00:24:04;;;;;;;6.80;2.65;;;20.60;99.90;;;;;;4970525;28;20870;-82
2022/07/11 00:26:30;;;;;;;9.18;2.70;;;20.50;99.50;;;;;;4970220;28;20491;-82
2022/07/11 00:28:56;;;;;;;5.88;2.28;;;20.50;99.60;;;;;;4970389;28;20033;-82
2022/07/11 00:31:22;;;;;;;5.82;2.63;;;20.50;99.90;;;;;;4985076;28;20553;-82
2022/07/11 00:33:48;;;;;;;9.30;2.40;;;20.50;99.90;;;;;;4970372;28;20058;-82
2022/07/11 00:36:14;;;;;;;6.15;2.30;;;20.50;99.90;;;;;;4970176;28;20034;-82
2022/07/11 00:38:40;;;;;;;9.15;2.28;;;20.30;99.90;;;;;;4971186;28;20085;-82
2022/07/11 00:41:06;;;;;;;8.02;1.98;;;20.40;99.90;;;;;;4968964;28;20030;-83
2022/07/11 00:43:39;;;;;;;8.18;2.55;;;20.30;99.90;;;;;;4970265;28;20042;-82
2022/07/11 00:46:06;;;;;;;4.13;2.25;;;20.40;99.90;;;;;;4970193;28;20019;-82
2022/07/11 00:48:32;;;;;;;5.28;2.00;;;20.40;99.90;;;;;;4970153;28;20416;-83
2022/07/11 00:50:58;;;;;;;7.03;2.03;;;20.40;99.90;;;;;;4970023;28;20368;-82
2022/07/11 00:53:25;;;;;;;5.38;2.20;;;20.40;99.90;;;;;;4973838;28;20034;-82
2022/07/11 00:55:53;;;;;;;3.97;2.00;;;20.30;99.90;;;;;;4974177;28;20023;-83
2022/07/11 00:58:18;;;;;;;4.57;2.13;;;20.30;99.90;;;;;;4974056;28;20027;-82
2022/07/11 01:00:45;;;;;;;9.90;2.40;;;20.30;99.90;;;;;;4974177;28;20027;-83
2022/07/11 01:03:11;;;;;;;5.25;2.60;;;20.30;99.90;;;;;;4975063;28;20023;-82
2022/07/11 01:05:36;;;;;;;7.10;1.98;;;20.20;99.90;;;;;;4972589;28;20023;-84
2022/07/11 01:08:02;;;;;;;7.22;2.38;;;20.10;99.90;;;;;;4973971;28;20030;-84
2022/07/11 01:10:28;;;;;;;5.88;2.30;;;20.10;99.90;;;;;;4973895;28;20031;-82
2022/07/11 01:12:54;;;;;;;7.30;2.17;;;20.20;99.90;;;;;;4973809;28;20029;-87
2022/07/11 01:15:20;;;;;;;3.33;2.00;;;20.10;99.90;;;;;;4973829;28;20039;-87
2022/07/11 01:17:45;;;;;;;5.05;2.00;;;20.20;99.90;;;;;;4972517;28;20074;-82
2022/07/11 01:20:11;;;;;;;3.67;2.40;;;20.20;99.90;;;;;;4974593;28;20031;-83
2022/07/11 01:22:48;;;;;;;9.65;2.17;;;20.10;99.90;;;;;;4973780;28;20034;-88
2022/07/11 01:25:29;;;;;;;5.88;2.20;;;20.10;99.90;;;;;;4974553;28;20023;-83
2022/07/11 01:27:57;;;;;;;5.68;2.05;;;20.10;99.90;;;;;;4973408;28;20113;-82
2022/07/11 01:30:23;;;;;;;6.55;2.20;;;20.10;99.90;;;;;;4973519;28;20019;-82
2022/07/11 01:32:51;;;;;;;8.25;2.40;;;20.00;99.90;;;;;;4973568;28;20049;-82
2022/07/11 01:35:17;;;;;;;7.70;2.10;;;20.00;99.90;;;;;;4973513;28;20019;-82
2022/07/11 01:37:42;;;;;;;7.10;2.33;;;19.90;99.90;;;;;;4974144;28;20047;-82
2022/07/11 01:40:09;;;;;;;7.53;2.22;;;20.00;99.90;;;;;;4973303;28;20052;-82
2022/07/11 01:42:35;;;;;;;5.30;2.20;;;20.00;99.90;;;;;;4973335;28;20077;-83
2022/07/11 01:45:00;;;;;;;8.27;2.25;;;19.90;99.90;;;;;;4973302;28;20027;-83
2022/07/11 01:47:26;;;;;;;5.88;2.30;;;19.80;99.90;;;;;;4973350;28;20037;-82
2022/07/11 01:49:52;;;;;;;7.07;2.30;;;19.80;99.90;;;;;;4973305;28;20046;-82
2022/07/11 01:52:17;;;;;;;6.28;2.13;;;19.80;99.90;;;;;;4971989;28;20479;-82
2022/07/11 01:54:43;;;;;;;5.97;2.33;;;19.80;99.90;;;;;;4973768;28;20030;-83
2022/07/11 01:57:09;;;;;;;6.70;2.17;;;19.80;99.90;;;;;;4972957;28;20034;-87
2022/07/11 01:59:35;;;;;;;6.45;2.15;;;19.90;99.90;;;;;;4973038;28;20114;-83
2022/07/11 02:02:02;;;;;;;5.20;2.20;;;19.80;99.90;;;;;;4972906;28;20077;-83
2022/07/11 02:04:27;;;;;;;4.55;2.17;;;19.60;99.90;;;;;;4972079;28;20467;-82
2022/07/11 02:06:53;;;;;;;5.15;2.05;;;19.70;99.90;;;;;;4971627;28;20070;-82
2022/07/11 02:09:18;;;;;;;9.85;2.20;;;19.70;99.90;;;;;;4971294;28;20082;-83
2022/07/11 02:11:44;;;;;;;5.68;2.05;;;19.70;99.90;;;;;;4973545;28;20091;-84
2022/07/11 02:14:10;;;;;;;8.27;2.25;;;19.80;99.90;;;;;;4972652;28;20490;-84
2022/07/11 02:16:35;;;;;;;4.95;1.80;;;19.70;99.90;;;;;;4972526;28;20042;-83
2022/07/11 02:19:01;;;;;;;6.50;2.50;;;19.70;99.90;;;;;;4972667;28;20072;-88
2022/07/11 02:21:26;;;;;;;4.07;2.00;;;19.80;99.90;;;;;;4972521;28;20093;-87
2022/07/11 02:23:52;;;;;;;6.28;2.00;;;19.80;99.90;;;;;;4972555;28;20030;-87
2022/07/11 02:26:18;;;;;;;4.38;1.77;;;19.90;99.90;;;;;;4973212;28;20030;-83
2022/07/11 02:28:44;;;;;;;7.85;2.10;;;19.90;99.90;;;;;;4972894;28;20030;-85
2022/07/11 02:31:10;;;;;;;6.97;1.90;;;19.90;99.90;;;;;;4972649;28;20102;-83
2022/07/11 02:33:36;;;;;;;5.18;2.08;;;19.80;99.90;;;;;;4972664;28;20059;-87
2022/07/11 02:36:02;;;;;;;4.22;1.95;;;19.80;99.90;;;;;;4974657;28;20170;-85
2022/07/11 02:38:28;;;;;;;7.07;2.17;;;19.80;99.90;;;;;;4975155;28;20089;-84
2022/07/11 02:40:53;;;;;;;5.43;2.00;;;19.70;99.90;;;;;;4973710;28;20083;-84
2022/07/11 02:43:19;;;;;;;9.07;2.33;;;19.70;99.90;;;;;;4975041;28;20026;-87
2022/07/11 02:45:45;;;;;;;5.55;2.13;;;19.70;99.90;;;;;;4972888;28;20019;-86
2022/07/11 02:48:12;;;;;;;6.35;2.25;;;19.50;99.90;;;;;;4972264;28;20026;-84
2022/07/11 02:50:38;;;;;;;3.55;2.15;;;19.50;99.90;;;;;;4972162;28;20070;-87
2022/07/11 02:53:03;;;;;;;8.02;2.20;;;19.50;99.90;;;;;;4972031;28;20030;-84
2022/07/11 02:55:29;;;;;;;6.47;2.42;;;19.30;99.90;;;;;;4972072;28;20490;-84
2022/07/11 02:57:55;;;;;;;8.00;2.42;;;19.30;99.90;;;;;;4972030;28;20038;-88
2022/07/11 03:00:21;;;;;;;7.97;2.03;;;19.40;99.90;;;;;;4972665;28;20023;-82
2022/07/11 03:02:46;;;;;;;6.35;1.90;;;19.40;99.90;;;;;;4972758;28;20034;-83
2022/07/11 03:05:15;;;;;;;4.70;1.90;;;19.40;99.90;;;;;;4971887;28;20031;-83
2022/07/11 03:07:41;;;;;;;10.32;2.28;;;19.40;99.90;;;;;;4971703;28;20105;-84
2022/07/11 03:10:07;;;;;;;4.72;2.40;;;19.40;99.90;;;;;;4971743;28;20487;-84
2022/07/11 03:12:33;;;;;;;2.83;2.03;;;19.40;99.90;;;;;;4971812;28;20033;-83
2022/07/11 03:14:58;;;;;;;3.47;1.98;;;19.40;99.90;;;;;;4971738;28;20023;-82
2022/07/11 03:17:24;;;;;;;3.97;1.90;;;19.30;99.90;;;;;;4971571;28;20083;-81
2022/07/11 03:19:49;;;;;;;2.10;1.83;;;19.30;99.90;;;;;;4972391;28;20033;-81
2022/07/11 03:22:16;;;;;;;4.53;1.85;;;19.20;99.90;;;;;;4986422;28;20022;-84
2022/07/11 03:24:42;;;;;;;3.05;2.00;;;19.20;99.90;;;;;;4971429;28;20844;-84
2022/07/11 03:27:08;;;;;;;4.28;1.90;;;19.30;99.90;;;;;;4971337;28;20498;-81
2022/07/11 03:29:34;;;;;;;4.38;2.30;;;19.20;99.90;;;;;;4971446;28;20023;-83
2022/07/11 03:32:00;;;;;;;5.97;2.00;;;19.20;99.90;;;;;;4971313;28;20506;-86
2022/07/11 03:34:26;;;;;;;2.85;1.83;;;19.20;99.90;;;;;;4971319;28;20019;-84
2022/07/11 03:36:52;;;;;;;7.00;1.98;;;19.30;99.90;;;;;;4971989;28;20294;-84
2022/07/11 03:39:18;;;;;;;7.03;1.80;;;19.30;99.90;;;;;;4970250;28;20412;-86
2022/07/11 03:41:43;;;;;;;4.28;2.00;;;19.30;99.90;;;;;;4986204;28;20619;-84
2022/07/11 03:44:09;;;;;;;5.05;2.10;;;19.30;99.90;;;;;;4971242;28;20030;-84
2022/07/11 03:46:35;;;;;;;6.22;1.98;;;19.30;99.90;;;;;;4971212;28;20027;-84
2022/07/11 03:49:01;;;;;;;3.42;1.90;;;19.30;99.90;;;;;;4971188;28;20491;-85
2022/07/11 03:51:27;;;;;;;4.88;1.90;;;19.20;99.90;;;;;;4971049;28;20114;-83
2022/07/11 03:53:52;;;;;;;3.50;1.90;;;19.20;99.90;;;;;;4971827;28;20149;-83
2022/07/11 03:56:22;;;;;;;3.55;1.92;;;19.20;99.90;;;;;;4970757;28;20058;-85
2022/07/11 03:58:51;;;;;;;2.22;1.73;;;19.20;99.90;;;;;;4971013;28;20081;-83
2022/07/11 04:01:17;;;;;;;2.40;1.95;;;19.20;99.90;;;;;;4970555;28;20506;-83
2022/07/11 04:03:42;;;;;;;5.30;2.00;;;19.10;99.90;;;;;;4970775;28;20157;-83
2022/07/11 04:06:08;;;;;;;4.35;1.77;;;19.10;99.90;;;;;;4985569;28;20122;-83
2022/07/11 04:08:34;;;;;;;6.35;1.90;;;19.10;99.90;;;;;;4970738;28;20023;-83
2022/07/11 04:10:59;;;;;;;2.83;1.80;;;19.10;99.90;;;;;;4970775;28;20033;-84
2022/07/11 04:13:25;;;;;;;4.70;1.88;;;18.90;99.90;;;;;;4970705;28;20025;-84
2022/07/11 04:15:51;;;;;;;4.82;1.90;;;19.00;99.90;;;;;;4971481;28;20030;-84
2022/07/11 04:18:17;;;;;;;6.28;1.95;;;19.00;99.90;;;;;;4970410;28;20039;-84
2022/07/11 04:20:42;;;;;;;7.60;2.20;;;18.80;99.90;;;;;;4970552;28;20031;-83
2022/07/11 04:23:08;;;;;;;3.15;1.80;;;18.70;99.90;;;;;;4970511;28;20034;-83
2022/07/11 04:25:34;;;;;;;4.45;1.85;;;18.80;99.90;;;;;;4970507;28;20037;-86
2022/07/11 04:28:00;;;;;;;2.83;1.75;;;18.80;99.90;;;;;;4969912;28;20038;-88
2022/07/11 04:30:26;;;;;;;4.55;2.00;;;18.80;99.90;;;;;;4970636;28;20033;-83
2022/07/11 04:32:52;;;;;;;9.73;2.00;;;18.90;99.90;;;;;;4958999;28;20025;-83
2022/07/11 04:35:18;;;;;;;3.60;1.90;;;18.90;99.90;;;;;;4958374;28;20431;-83
2022/07/11 04:37:44;;;;;;;4.80;1.90;;;19.00;99.90;;;;;;4963464;28;20070;-83
2022/07/11 04:40:10;;;;;;;2.80;1.95;;;18.90;99.90;;;;;;4975610;28;20027;-83
2022/07/11 04:42:37;;;;;;;4.35;2.00;;;18.90;99.90;;;;;;4977462;28;20398;-86
2022/07/11 04:45:03;;;;;;;2.83;1.67;;;18.80;99.90;;;;;;4973365;28;20058;-83
2022/07/11 04:47:28;;;;;;;5.40;2.17;;;18.90;99.90;;;;;;4969531;28;20067;-86
2022/07/11 04:49:54;;;;;;;4.68;1.70;;;18.80;99.90;;;;;;4975525;28;20007;-83
2022/07/11 04:52:20;;;;;;;5.18;1.90;;;18.70;99.90;;;;;;4961588;28;20038;-85
2022/07/11 04:54:45;;;;;;;5.32;1.70;;;18.70;99.90;;;;;;4985188;28;20245;-83
2022/07/11 04:57:11;;;;;;;5.13;2.20;;;18.70;99.90;;;;;;4964689;28;20081;-83
2022/07/11 04:59:38;;;;;;;5.75;2.22;;;18.70;99.90;;;;;;4962804;28;20018;-83
2022/07/11 05:02:04;;;;;;;5.33;1.90;;;18.60;99.90;;;;;;4969908;28;20038;-85
2022/07/11 05:04:30;;;;;;;1.98;1.73;;;18.70;99.90;;;;;;4970056;28;20030;-83
2022/07/11 05:06:56;;;;;;;6.85;2.22;;;18.70;99.90;;;;;;4970849;28;20102;-83
2022/07/11 05:09:21;;;;;;;4.18;2.00;;;18.70;99.90;;;;;;4970794;28;20031;-83
2022/07/11 05:11:47;;;;;;;6.70;2.00;;;;;;;;;;4984944;28;20157;-84
2022/07/11 05:14:13;;;;;;;4.00;2.03;;;18.70;99.90;;;;;;4984753;28;20395;-84
2022/07/11 05:16:39;;;;;;;6.10;2.13;;;18.80;99.90;;;;;;4971551;28;20026;-84
2022/07/11 05:19:04;;;;;;;4.05;1.70;;;18.70;99.90;;;;;;4970198;28;20042;-84
2022/07/11 05:21:30;;;;;;;5.25;1.77;;;18.70;99.90;;;;;;4969889;28;20030;-85
2022/07/11 05:23:56;;;;;;;3.55;1.48;;;18.60;99.90;;;;;;4970886;28;20059;-88
2022/07/11 05:26:21;;;;;;;4.57;2.03;;;18.60;99.90;;;;;;4985077;28;20050;-84
2022/07/11 05:28:47;;;;;;;10.35;2.05;;;18.70;99.90;;;;;;4970421;28;20354;-86
2022/07/11 05:31:13;;;;;;;7.20;2.15;;;18.60;99.90;;;;;;4984748;28;20027;-90
2022/07/11 05:33:38;;;;;;;2.50;2.05;;;18.70;99.90;;;;;;4970148;28;20037;-89
2022/07/11 05:36:04;;;;;;;3.10;1.73;;;18.70;99.90;;;;;;4985029;28;20042;-85
2022/07/11 05:38:30;;;;;;;6.22;2.25;;;19.00;99.90;;;;;;4970587;28;20419;-90
2022/07/11 05:40:55;;;;;;;3.00;2.00;;;18.80;99.90;;;;;;4974402;28;20054;-85
2022/07/11 05:43:23;;;;;;;3.75;1.90;;;18.80;99.90;;;;;;4973530;28;20033;-91
2022/07/11 05:45:48;;;;;;;5.13;1.80;;;18.80;99.90;;;;;;4988861;28;20026;-91
2022/07/11 05:48:14;;;;;;;5.82;1.67;;;18.90;99.90;;;;;;4973838;28;20049;-90
2022/07/11 05:50:40;;;;;;;7.50;1.70;;;19.00;99.90;;;;;;4988769;28;20487;-90
2022/07/11 05:53:05;;;;;;;7.57;1.83;;;19.00;99.90;;;;;;4973635;28;20027;-84
2022/07/11 05:55:31;;;;;;;7.00;2.00;;;18.90;99.90;;;;;;4973595;28;20026;-90
2022/07/11 05:57:59;;;;;;;4.97;1.60;;;19.00;99.90;;;;;;4989507;28;20038;-90
2022/07/11 06:00:27;;;;;;;5.18;1.75;;;19.10;99.90;;;;;;4974175;28;20097;-85
2022/07/11 06:02:52;;;;;;;8.02;1.73;;;19.10;99.90;;;;;;4973442;28;20030;-86
2022/07/11 06:05:18;;;;;;;2.75;1.70;;;19.20;99.90;;;;;;4988094;28;20030;-89
2022/07/11 06:10:28;;;;;;;3.67;1.63;;;19.20;99.90;;;;;;4974327;28;20064;-90
2022/07/11 06:12:55;;;;;;;5.88;1.50;;;19.30;99.90;;;;;;4973427;28;20475;-90
2022/07/11 06:15:21;;;;;;;4.30;1.55;;;19.30;99.90;;;;;;4973214;28;20273;-90
2022/07/11 06:17:46;;;;;;;2.55;1.55;;;19.30;99.90;;;;;;4973139;28;20038;-85
2022/07/11 06:20:12;;;;;;;3.97;1.98;;;19.40;99.90;;;;;;4973094;28;20391;-90
2022/07/11 06:22:38;;;;;;;3.88;1.67;;;19.50;99.90;;;;;;4987871;28;20415;-91
2022/07/11 06:25:04;;;;;;;4.35;1.48;;;19.50;99.90;;;;;;4972945;28;20023;-88
2022/07/11 06:27:30;;;;;;;3.42;1.70;;;19.60;99.90;;;;;;4973841;28;20514;-91
2022/07/11 06:29:55;;;;;;;3.33;1.70;;;19.60;99.90;;;;;;4972979;28;20015;-91
2022/07/11 06:32:21;;;;;;;2.78;1.55;;;19.60;99.90;;;;;;4972780;28;20034;-92
2022/07/11 06:34:47;;;;;;;5.45;1.73;;;19.60;99.90;;;;;;4972846;28;20061;-92
2022/07/11 06:37:12;;;;;;;3.40;1.60;;;19.60;99.90;;;;;;4972682;28;20482;-91
2022/07/11 06:39:38;;;;;;;5.00;1.65;;;19.60;99.90;;;;;;4972955;28;20058;-91
2022/07/11 06:42:04;;;;;;;2.40;1.70;;;19.60;99.90;;;;;;4972538;28;20122;-89
2022/07/11 06:44:30;;;;;;;5.72;1.70;;;19.70;99.90;;;;;;4973711;28;20378;-91
2022/07/11 06:46:56;;;;;;;5.68;1.73;;;19.80;99.90;;;;;;4987697;28;20085;-84
2022/07/11 06:49:22;;;;;;;6.28;2.10;;;19.80;99.90;;;;;;4972337;28;20079;-89
2022/07/11 06:51:48;;;;;;;2.60;1.60;;;19.90;99.90;;;;;;4972573;28;20047;-84
2022/07/11 06:54:13;;;;;;;2.55;1.30;;;20.00;99.90;;;;;;4972563;28;20033;-85
2022/07/11 06:56:39;;;;;;;4.43;1.80;;;20.10;99.90;;;;;;4972439;28;20027;-86
2022/07/11 06:59:04;;;;;;;3.25;1.75;;;20.10;99.90;;;;;;4987445;28;20487;-85
2022/07/11 07:01:30;;;;;;;2.22;1.50;;;20.20;99.90;;;;;;4973138;28;20027;-86
2022/07/11 07:03:56;;;;;;;1.90;1.38;;;20.30;99.90;;;;;;4987365;28;20116;-88
2022/07/11 07:06:21;;;;;;;5.97;1.70;;;20.40;99.90;;;;;;4972236;28;20045;-91
2022/07/11 07:08:48;;;;;;;3.80;1.50;;;20.40;99.90;;;;;;4972120;28;20050;-89
2022/07/11 07:11:14;;;;;;;6.93;1.67;;;20.50;99.90;;;;;;4972342;28;20083;-84
2022/07/11 07:13:39;;;;;;;7.82;1.70;;;20.60;99.90;;;;;;4972080;28;20034;-85
2022/07/11 07:16:06;;;;;;;2.75;1.40;;;20.70;99.90;;;;;;4971790;28;20034;-84
2022/07/11 07:18:32;;;;;;;6.28;1.48;;;20.70;99.90;;;;;;4972763;28;20557;-90
2022/07/11 07:20:58;;;;;;;2.45;1.50;;;20.80;99.90;;;;;;4972165;28;20494;-91
2022/07/11 07:23:24;;;;;;;3.47;1.40;;;20.90;99.90;;;;;;4971698;28;20248;-84
2022/07/11 07:25:50;;;;;;;3.90;1.42;;;21.00;99.90;;;;;;4971343;28;20014;-84
2022/07/11 07:28:16;;;;;;;4.43;1.55;;;21.10;99.90;;;;;;4970822;28;20407;-84
2022/07/11 07:30:42;;;;;;;4.10;1.30;;;21.10;99.90;;;;;;4971250;28;20027;-91
2022/07/11 07:33:07;;;;;;;2.03;1.27;;;21.30;99.90;;;;;;4971139;28;20388;-91
2022/07/11 07:35:33;;;;;;;3.97;1.60;;;21.30;99.90;;;;;;4972318;28;20089;-88
2022/07/11 07:38:00;;;;;;;2.70;1.50;;;21.40;99.90;;;;;;4970952;28;20046;-91
2022/07/11 07:40:26;;;;;;;2.35;1.42;;;21.40;99.90;;;;;;4971304;28;20065;-86
2022/07/11 07:42:52;;;;;;;3.20;1.50;;;21.40;99.90;;;;;;4970869;28;20081;-91
2022/07/11 07:45:18;;;;;;;2.33;1.63;;;21.50;99.90;;;;;;4970405;28;20395;-92
2022/07/11 07:47:43;;;;;;;2.72;1.45;;;21.50;99.90;;;;;;4970436;28;20037;-89
2022/07/11 07:50:09;;;;;;;3.50;1.42;;;21.60;99.90;;;;;;4970260;28;20078;-87
2022/07/11 07:52:35;;;;;;;4.20;1.50;;;21.70;99.90;;;;;;4971299;28;20035;-87
2022/07/11 07:55:01;;;;;;;4.18;1.60;;;21.80;96.90;;;;;;4987100;28;20014;-83
2022/07/11 07:57:27;;;;;;;2.28;1.33;;;21.90;96.70;;;;;;4986139;28;20029;-85
2022/07/11 08:01:34;;;;;;;5.43;1.40;;;21.90;95.60;;;;;;4988543;28;20027;-91
2022/07/11 08:02:38;;;;;;;2.22;1.35;;;22.00;97.90;;;;;;4981854;28;20407;-84
2022/07/11 08:05:04;;;;;;;3.38;1.63;;;22.20;94.80;;;;;;4973827;28;20107;-91
2022/07/11 08:07:30;;;;;;;1.75;1.42;;;24.20;94.70;;;;;;4969518;28;20058;-91
2022/07/11 08:09:55;;;;;;;4.15;1.50;;;22.30;94.50;;;;;;4970595;28;20862;-90
2022/07/11 08:12:21;;;;;;;2.95;1.52;;;22.50;95.00;;;;;;4970303;28;20031;-85
2022/07/11 08:14:46;;;;;;;3.97;1.23;;;22.60;94.10;;;;;;4969925;28;20061;-88
2022/07/11 08:17:12;;;;;;;4.28;1.42;;;22.60;93.50;;;;;;4984552;28;20376;-86
2022/07/11 08:19:38;;;;;;;3.50;1.50;;;22.60;92.60;;;;;;4984661;28;20458;-84
2022/07/11 08:22:03;;;;;;;4.90;1.40;;;22.70;93.10;;;;;;4970420;28;20069;-85
2022/07/11 08:24:29;;;;;;;2.47;1.52;;;23.00;93.10;;;;;;4969461;28;20050;-86
2022/07/11 08:26:55;;;;;;;1.90;1.50;;;23.10;92.80;;;;;;4969311;28;20224;-85
2022/07/11 08:29:20;;;;;;;2.28;1.40;;;23.20;92.90;;;;;;4969343;28;20101;-92
2022/07/11 08:31:46;;;;;;;2.78;1.38;;;23.30;91.20;;;;;;4969919;28;20101;-85
2022/07/11 08:34:12;;;;;;;4.15;1.50;;;23.40;91.00;;;;;;4982722;28;20169;-87
2022/07/11 08:36:37;;;;;;;5.57;1.40;;;23.30;81.60;;;;;;4967581;28;20403;-85
2022/07/11 08:39:03;;;;;;;3.80;1.30;;;23.40;88.90;;;;;;4970241;28;20038;-92
2022/07/11 08:41:31;;;;;;;4.47;1.50;;;23.70;91.20;;;;;;4969622;28;20015;-91
2022/07/11 08:43:59;;;;;;;2.72;1.70;;;23.70;91.90;;;;;;4984202;28;20031;-88
2022/07/11 08:46:26;;;;;;;8.30;1.50;;;23.70;85.00;;;;;;4984679;28;20441;-85
2022/07/11 08:48:53;;;;;;;5.18;1.50;;;23.80;84.90;;;;;;4969011;28;20487;-91
2022/07/11 08:51:22;;;;;;;4.32;1.55;;;23.90;83.00;;;;;;4968144;28;20022;-91
2022/07/11 08:53:48;;;;;;;3.65;1.30;;;23.90;84.00;;;;;;4981856;28;20034;-91
2022/07/11 08:56:17;;;;;;;6.68;1.42;;;24.10;84.00;;;;;;4967913;28;20029;-90
2022/07/11 08:58:47;;;;;;;10.05;1.65;;;24.10;82.10;;;;;;4969482;28;20035;-92
2022/07/11 09:01:16;;;;;;;4.78;1.50;;;24.20;83.20;;;;;;4969374;28;20019;-93
2022/07/11 09:03:43;;;;;;;4.22;1.40;;;24.30;83.10;;;;;;4968962;28;20066;-92
2022/07/11 09:06:10;;;;;;;5.93;1.60;;;24.20;77.90;;;;;;4970232;28;20058;-85
2022/07/11 09:08:36;;;;;;;1.90;1.48;;;24.20;74.70;;;;;;4969178;28;20034;-85
2022/07/11 09:11:03;;;;;;;5.05;1.40;;;24.10;71.60;;;;;;4971123;28;20074;-86
2022/07/11 09:13:30;;;;;;;3.40;1.10;;;;;;;;;;4971327;28;20027;-86
2022/07/11 09:16:06;;;;;;;4.30;1.50;;;;;;;;;;4989201;28;20039;-86
2022/07/11 09:18:36;;;;;;;6.78;1.60;;;24.60;78.70;;;;;;4988322;28;20469;-87
2022/07/11 09:26:39;;;;;;;3.28;1.40;;;24.80;76.20;;;;;;4974043;28;20046;-86
2022/07/11 09:29:11;;;;;;;2.70;1.40;;;24.90;72.30;;;;;;4975204;28;20065;-87
2022/07/11 09:31:38;;;;;;;5.03;1.45;;;24.90;71.80;;;;;;4974028;28;20094;-86
2022/07/11 09:34:06;;;;;;;;;;;24.90;70.90;;;;;;4974764;28;20037;-86
2022/07/11 09:36:36;;;;;;;18.02;1.42;;;25.10;72.10;;;;;;4974816;28;20274;-92
2022/07/11 09:39:03;;;;;;;22.23;1.60;;;;;;;;;;4973191;28;20045;-90
2022/07/11 09:41:36;;;;;;;16.40;2.07;;;25.30;70.90;;;;;;4972533;28;20027;-90
2022/07/11 09:44:12;;;;;;;4.22;1.40;;;25.30;74.20;;;;;;4972206;28;20273;-91
2022/07/11 09:46:40;;;;;;;4.95;1.30;;;25.50;70.30;;;;;;4970271;28;20035;-92
2022/07/11 09:49:07;;;;;;;2.92;1.50;;;25.50;70.20;;;;;;4972133;28;20431;-86
2022/07/11 09:51:33;;;;;;;4.88;1.10;;;25.40;69.10;;;;;;4972771;28;20042;-85
2022/07/11 09:54:01;;;;;;;2.90;1.50;;;25.40;68.80;;;;;;4971816;28;20098;-85
2022/07/11 09:56:45;;;;;;;;;;;25.60;68.00;;;;;;4972182;28;20023;-85
2022/07/11 09:59:12;;;;;;;2.17;1.15;;;25.50;67.30;;;;;;4973441;28;19910;-85
2022/07/11 10:01:39;;;;;;;5.75;1.40;;;25.40;68.00;;;;;;4973448;28;20118;-85
2022/07/11 10:04:07;;;;;;;2.53;1.20;;;25.60;70.00;;;;;;4973450;28;20031;-90
2022/07/11 10:06:33;;;;;;;5.35;1.23;;;25.70;64.50;;;;;;4973775;28;20041;-90
2022/07/11 10:08:58;;;;;;;3.08;1.20;;;25.80;67.30;;;;;;4971972;28;20015;-85
2022/07/11 10:11:24;;;;;;;1.60;1.33;;;25.90;66.70;;;;;;4973069;28;20039;-85
2022/07/11 10:13:51;;;;;;;4.38;1.38;;;25.90;66.70;;;;;;4987944;28;20046;-85
2022/07/11 10:16:37;;;;;;;4.30;1.10;;;26.10;66.70;;;;;;4973215;28;20113;-92
2022/07/11 10:19:39;;;;;;;4.68;1.25;;;26.10;67.20;;;;;;4973971;28;20097;-92
2022/07/11 10:22:29;;;;;;;1.42;1.00;;;26.00;67.30;;;;;;4973640;28;20058;-85
2022/07/11 10:25:18;;;;;;;3.42;1.20;;;25.90;62.70;;;;;;4968316;28;20428;-87
2022/07/11 10:27:57;;;;;;;4.32;1.52;;;25.90;65.10;;;;;;4972893;28;20046;-92
2022/07/11 10:30:47;;;;;;;6.03;1.17;;;26.20;65.90;;;;;;4986428;28;20465;-92
2022/07/11 10:33:17;;;;;;;4.70;1.23;;;26.20;65.50;;;;;;4971028;28;20022;-94
2022/07/11 10:35:46;;;;;;;2.78;1.10;;;26.20;61.30;;;;;;4988026;28;20022;-88
2022/07/11 10:38:12;;;;;;;2.40;1.00;;;26.10;64.60;;;;;;4983636;28;20027;-89
2022/07/11 10:40:46;;;;;;;1.70;1.10;;;26.30;65.70;;;;;;4996394;28;20075;-87
2022/07/11 10:43:32;;;;;;;5.15;1.20;;;;;;;;;;4995860;28;20018;-89
2022/07/11 10:46:01;;;;;;;1.60;1.13;;;26.60;62.50;;;;;;4985396;28;20035;-88
2022/07/11 10:48:29;;;;;;;2.13;1.10;;;26.40;62.90;;;;;;4976829;28;20026;-88
2022/07/11 10:51:20;;;;;;;2.42;1.20;;;26.40;62.20;;;;;;4971577;28;20181;-84
2022/07/11 10:53:48;;;;;;;5.28;1.35;;;26.60;63.80;;;;;;4984414;28;20426;-94
2022/07/11 10:56:13;;;;;;;;;;;26.60;58.00;;;;;;4972256;28;20054;-90
2022/07/11 10:58:45;;;;;;;4.55;1.30;;;26.60;62.60;;;;;;4971681;28;20399;-85
2022/07/11 11:01:16;;;;;;;4.70;1.10;;;26.50;61.80;;;;;;4971465;28;20118;-86
2022/07/11 11:03:44;;;;;;;2.88;1.30;;;26.40;64.60;;;;;;4971306;28;20410;-84
2022/07/11 11:06:10;;;;;;;2.22;1.10;;;26.60;66.20;;;;;;4971985;28;20582;-85
2022/07/11 11:08:40;;;;;;;2.53;1.10;;;26.60;63.50;;;;;;4972651;28;20479;-85
2022/07/11 11:11:24;;;;;;;2.17;1.10;;;26.80;62.90;;;;;;4972751;28;20053;-86
2022/07/11 11:14:15;;;;;;;2.13;1.10;;;26.90;65.10;;;;;;4972579;28;20022;-90
2022/07/11 11:16:40;;;;;;;2.47;1.13;;;27.20;62.20;;;;;;4970795;28;20058;-86
2022/07/11 11:19:06;;;;;;;1.52;1.10;;;27.20;63.60;;;;;;4971483;28;20503;-92
2022/07/11 11:21:32;;;;;;;2.05;1.30;;;27.30;62.50;;;;;;4971752;28;20098;-93
2022/07/11 11:24:00;;;;;;;3.00;1.15;;;27.30;59.80;;;;;;4969952;28;20018;-93
2022/07/11 11:26:44;;;;;;;6.28;1.05;;;27.30;63.50;;;;;;4970650;28;20034;-93
2022/07/11 11:29:10;;;;;;;4.20;1.10;;;27.50;62.00;;;;;;4968921;28;20026;-93
2022/07/11 11:31:35;;;;;;;4.82;1.05;;;27.40;61.50;;;;;;4972350;28;20376;-85
2022/07/11 11:34:02;;;;;;;2.58;1.13;;;27.40;61.00;;;;;;4971119;28;20066;-86
2022/07/11 11:36:29;;;;;;;1.98;1.00;;;27.50;60.20;;;;;;4970641;28;20034;-85
2022/07/11 11:38:55;;;;;;;4.30;1.20;;;27.50;61.10;;;;;;4970763;28;20030;-85
2022/07/11 11:41:29;;;;;;;4.63;1.17;;;27.60;59.50;;;;;;4971152;28;20061;-84
2022/07/11 11:43:58;;;;;;;2.28;1.00;;;27.30;57.70;;;;;;4971463;28;20027;-85
2022/07/11 11:46:28;;;;;;;2.58;0.95;;;27.20;58.80;;;;;;4985756;28;20237;-85
2022/07/11 11:48:59;;;;;;;6.55;1.10;;;27.30;55.80;;;;;;4965601;28;20142;-85
2022/07/11 11:51:27;;;;;;;1.10;1.00;;;27.30;61.10;;;;;;4969628;28;20142;-85
2022/07/11 11:54:02;;;;;;;4.28;1.25;;;27.30;61.40;;;;;;4967478;28;20030;-84
2022/07/11 11:56:33;;;;;;;3.13;1.20;;;27.40;60.00;;;;;;4968071;28;20252;-90
2022/07/11 11:59:15;;;;;;;4.00;1.00;;;27.60;59.40;;;;;;4969612;28;20035;-91
2022/07/11 12:01:43;;;;;;;2.13;1.20;;;27.50;57.40;;;;;;4974745;28;20471;-86
2022/07/11 12:04:11;;;;;;;3.40;0.95;;;27.30;57.70;;;;;;4969334;28;20015;-85
2022/07/11 12:06:40;;;;;;;4.07;1.10;;;27.30;58.40;;;;;;4985247;28;20027;-85
2022/07/11 12:09:11;;;;;;;2.88;1.10;;;27.10;56.70;;;;;;4985107;28;20042;-90
2022/07/11 12:11:43;;;;;;;5.63;1.25;;;27.30;60.80;;;;;;4970197;28;20078;-86
2022/07/11 12:14:10;;;;;;;3.30;1.00;;;27.30;57.90;;;;;;4970126;28;20022;-91
2022/07/11 12:16:46;;;;;;;3.95;1.15;;;27.40;60.20;;;;;;4969629;28;20054;-86
2022/07/11 12:19:16;;;;;;;4.07;1.20;;;27.50;59.60;;;;;;4967015;28;20081;-86
2022/07/11 12:21:44;;;;;;;5.05;1.10;;;27.30;57.00;;;;;;4968935;28;20070;-86
2022/07/11 12:24:14;;;;;;;7.88;1.30;;;27.20;56.30;;;;;;4969024;28;20081;-85
2022/07/11 12:26:41;;;;;;;2.08;1.15;;;27.30;58.00;;;;;;4968937;28;20191;-86
2022/07/11 12:29:19;;;;;;;2.25;1.15;;;27.30;56.90;;;;;;4969365;28;20817;-87
2022/07/11 12:31:45;;;;;;;9.93;1.48;;;27.30;56.80;;;;;;4968452;28;20030;-85
2022/07/11 12:34:10;;;;;;;4.05;1.02;;;27.30;55.50;;;;;;4966253;28;20023;-86
2022/07/11 12:36:37;;;;;;;3.22;1.02;;;27.40;59.50;;;;;;4969633;28;20019;-85
2022/07/11 12:39:04;;;;;;;5.05;1.13;;;27.50;58.00;;;;;;4969723;28;20027;-85
2022/07/11 12:41:31;;;;;;;2.47;1.00;;;27.50;58.80;;;;;;4969126;28;20011;-94
2022/07/11 12:46:42;;;;;;;3.63;1.10;;;27.70;57.50;;;;;;4967503;28;20030;-86
2022/07/11 12:49:10;;;;;;;3.28;1.00;;;27.80;58.50;;;;;;4968751;28;20019;-86
2022/07/11 12:51:41;;;;;;;1.98;1.00;;;27.90;57.90;;;;;;4970215;28;20510;-91
2022/07/11 12:54:09;;;;;;;12.50;1.40;;;27.80;56.30;;;;;;4969253;28;20030;-85
2022/07/11 12:56:36;;;;;;;4.63;1.17;;;27.90;53.90;;;;;;4969657;28;20398;-85
2022/07/11 12:59:03;;;;;;;2.70;1.02;;;27.90;51.30;;;;;;4969319;28;20466;-93
2022/07/11 13:01:30;;;;;;;4.20;1.08;;;27.90;55.50;;;;;;4968434;28;20022;-94